Time;durP1;ratioP1;P1;durP2;ratioP2;P2;SDS_P1;SDS_P2;PMS_P1;PMS_P2;Temp;Humidity;BMP_temperature;BMP_pressure;BME280_temperature;BME280_humidity;BME280_pressure;Samples;Min_cycle;Max_cycle;Signal;HPM_P1;HPM_P2
2023/09/17 00:01:35;;;;;;;7.78;6.00;;;15.60;99.90;;;14.68;100.00;101187.97;4940720;29;20035;-78
2023/09/17 00:04:01;;;;;;;13.45;6.85;;;15.60;99.90;;;14.68;100.00;101193.28;4940115;29;20084;-79
2023/09/17 00:06:26;;;;;;;14.90;6.90;;;15.60;99.90;;;14.63;100.00;101188.22;4937354;29;20516;-78
2023/09/17 00:08:52;;;;;;;11.57;6.28;;;15.50;99.90;;;14.58;100.00;101182.34;4906651;29;20131;-79
2023/09/17 00:11:21;;;;;;;8.80;6.55;;;15.50;99.90;;;14.55;100.00;101186.00;4928720;29;20079;-77
2023/09/17 00:13:47;;;;;;;12.52;6.60;;;15.50;99.90;;;14.53;100.00;101184.34;4922893;29;20461;-77
2023/09/17 00:16:12;;;;;;;8.98;6.75;;;15.50;99.90;;;14.50;100.00;101180.09;4907401;29;20024;-78
2023/09/17 00:18:38;;;;;;;10.10;6.22;;;15.40;99.90;;;14.48;100.00;101184.59;4940268;29;20075;-78
2023/09/17 00:21:06;;;;;;;13.65;6.10;;;15.40;99.90;;;14.45;100.00;101189.22;4938303;29;20439;-77
2023/09/17 00:23:31;;;;;;;12.18;5.88;;;15.40;99.90;;;14.42;100.00;101181.44;4940222;29;20028;-77
2023/09/17 00:25:57;;;;;;;12.05;5.82;;;15.40;99.90;;;14.39;100.00;101179.84;4925879;29;20031;-77
2023/09/17 00:28:23;;;;;;;9.70;6.30;;;15.30;99.90;;;14.35;100.00;101187.09;4907488;29;20035;-78
2023/09/17 00:30:48;;;;;;;9.52;4.82;;;15.30;99.90;;;14.30;100.00;101181.19;4922743;29;20498;-77
2023/09/17 00:33:15;;;;;;;8.10;5.70;;;15.30;99.90;;;14.26;100.00;101176.16;4925450;29;20091;-77
2023/09/17 00:35:40;;;;;;;11.68;6.03;;;15.20;99.90;;;14.24;100.00;101183.31;4908424;29;20071;-78
2023/09/17 00:38:06;;;;;;;9.93;5.90;;;15.20;99.90;;;14.19;100.00;101180.06;4932296;28;20067;-78
2023/09/17 00:40:34;;;;;;;8.10;5.30;;;15.20;99.90;;;14.18;100.00;101189.78;4922267;29;20489;-78
2023/09/17 00:43:01;;;;;;;7.30;5.63;;;15.10;99.90;;;14.16;100.00;101183.72;4938709;29;20043;-77
2023/09/17 00:45:27;;;;;;;9.55;5.40;;;15.10;99.90;;;14.13;100.00;101179.47;4922581;29;20047;-77
2023/09/17 00:47:54;;;;;;;9.35;5.20;;;15.10;99.90;;;14.13;100.00;101178.63;4939512;29;20396;-78
2023/09/17 00:50:21;;;;;;;9.05;5.32;;;15.10;99.90;;;14.12;100.00;101174.25;4930896;29;20680;-78
2023/09/17 00:52:47;;;;;;;11.23;5.93;;;15.00;99.90;;;14.10;100.00;101176.09;4921611;29;20469;-77
2023/09/17 00:55:13;;;;;;;15.63;6.32;;;15.00;99.90;;;14.10;100.00;101173.47;4938220;29;20063;-78
2023/09/17 00:57:43;;;;;;;8.63;5.97;;;15.00;99.90;;;14.08;100.00;101172.69;4922620;29;20040;-78
2023/09/17 01:00:09;;;;;;;11.77;7.00;;;15.00;99.90;;;14.04;100.00;101164.09;4939726;29;20565;-77
2023/09/17 01:02:36;;;;;;;13.75;6.10;;;15.00;99.90;;;14.01;100.00;101161.56;4940448;29;20042;-78
2023/09/17 01:05:04;;;;;;;11.57;7.35;;;14.90;99.90;;;14.00;100.00;101159.03;4912315;29;20043;-77
2023/09/17 01:07:29;;;;;;;19.52;8.02;;;14.90;99.90;;;14.00;100.00;101164.34;4936649;29;20032;-78
2023/09/17 01:09:56;;;;;;;20.38;9.15;;;14.90;99.90;;;13.98;100.00;101161.75;4928847;29;20409;-76
2023/09/17 01:12:22;;;;;;;20.13;8.75;;;14.90;99.90;;;13.96;100.00;101158.34;4928792;29;20035;-77
2023/09/17 01:14:47;;;;;;;14.60;8.48;;;14.90;99.90;;;13.97;100.00;101161.84;4924947;29;20039;-77
2023/09/17 01:17:14;;;;;;;17.35;8.95;;;14.90;99.90;;;13.98;100.00;101158.25;4922040;29;20039;-78
2023/09/17 01:19:42;;;;;;;11.73;7.60;;;14.90;99.90;;;13.97;100.00;101161.84;4922613;29;20433;-77
2023/09/17 01:22:26;;;;;;;12.25;7.70;;;14.90;99.90;;;13.94;100.00;101170.81;4941177;29;20036;-77
2023/09/17 01:25:14;;;;;;;14.90;7.85;;;14.90;99.90;;;13.88;100.00;101160.53;4924614;29;20032;-78
2023/09/17 01:27:41;;;;;;;16.50;9.27;;;14.80;99.90;;;13.86;100.00;101162.41;4922284;29;20087;-78
2023/09/17 01:30:16;;;;;;;10.73;7.47;;;14.80;99.90;;;13.85;100.00;101163.34;4930770;29;20125;-77
2023/09/17 01:32:45;;;;;;;11.40;7.40;;;14.80;99.90;;;13.82;100.00;101161.75;4915312;29;20058;-78
2023/09/17 01:35:15;;;;;;;14.18;8.13;;;14.80;99.90;;;13.80;100.00;101160.09;4922490;29;20405;-78
2023/09/17 01:37:56;;;;;;;13.45;9.18;;;14.70;99.90;;;13.75;100.00;101163.81;4930728;29;20506;-78
2023/09/17 01:40:23;;;;;;;17.50;8.50;;;14.70;99.90;;;13.73;100.00;101157.75;4928355;29;20549;-77
2023/09/17 01:42:50;;;;;;;16.48;8.40;;;14.70;99.90;;;13.71;100.00;101159.66;4911213;29;20036;-77
2023/09/17 01:45:16;;;;;;;14.57;8.50;;;14.70;99.90;;;13.70;100.00;101157.94;4944371;29;20158;-77
2023/09/17 01:47:45;;;;;;;14.95;7.65;;;14.70;99.90;;;13.69;100.00;101158.00;4927141;29;20020;-78
2023/09/17 01:50:15;;;;;;;13.55;8.38;;;14.70;99.90;;;13.66;100.00;101166.97;4924419;29;20043;-77
2023/09/17 01:52:43;;;;;;;12.93;7.07;;;14.60;99.90;;;13.64;100.00;101170.63;4933703;29;20035;-77
2023/09/17 01:55:09;;;;;;;11.23;5.82;;;14.60;99.90;;;13.59;100.00;101165.59;4930350;29;20426;-77
2023/09/17 01:57:35;;;;;;;9.77;5.25;;;14.60;99.90;;;13.56;100.00;101164.88;4910799;29;20093;-77
2023/09/17 02:00:14;;;;;;;13.00;5.90;;;14.50;99.90;;;13.53;100.00;101163.25;4926155;29;20408;-79
2023/09/17 02:02:46;;;;;;;8.45;5.68;;;14.50;99.90;;;13.49;100.00;101159.91;4926726;29;20039;-77
2023/09/17 02:05:16;;;;;;;8.90;4.40;;;14.50;99.90;;;13.46;100.00;101175.94;4923740;29;20039;-78
2023/09/17 02:07:43;;;;;;;10.45;4.70;;;14.40;99.90;;;13.44;100.00;101171.69;4916176;29;20024;-78
2023/09/17 02:10:09;;;;;;;12.40;6.55;;;14.40;99.90;;;13.41;100.00;101167.41;4928247;29;20079;-77
2023/09/17 02:12:35;;;;;;;7.50;4.65;;;14.40;99.90;;;13.39;100.00;101165.75;4926017;29;20127;-77
2023/09/17 02:15:01;;;;;;;16.92;8.20;;;14.30;99.90;;;13.37;100.00;101163.19;4916778;29;20023;-77
2023/09/17 02:17:26;;;;;;;10.50;7.72;;;14.30;99.90;;;13.36;100.00;101163.28;4911797;29;20047;-77
2023/09/17 02:19:52;;;;;;;14.65;9.60;;;14.30;99.90;;;13.34;100.00;101155.41;4931618;29;20040;-78
2023/09/17 02:22:18;;;;;;;10.20;6.90;;;14.30;99.90;;;13.32;100.00;101154.63;4926406;29;20048;-78
2023/09/17 02:24:46;;;;;;;14.90;8.63;;;14.30;99.90;;;13.31;100.00;101158.22;4913633;29;20040;-78
2023/09/17 02:27:13;;;;;;;16.13;7.63;;;14.30;99.90;;;13.29;100.00;101154.78;4928797;29;20024;-77
2023/09/17 02:29:40;;;;;;;13.57;7.53;;;14.30;99.90;;;13.29;100.00;101146.88;4927918;29;21575;-77
2023/09/17 02:32:06;;;;;;;15.63;6.28;;;14.30;99.90;;;13.26;100.00;101152.25;4942389;29;20042;-77
2023/09/17 02:34:34;;;;;;;14.30;7.70;;;14.20;99.90;;;13.23;100.00;101149.78;4942633;29;20410;-78
2023/09/17 02:37:00;;;;;;;11.30;7.47;;;14.20;99.90;;;13.15;100.00;101158.09;4926279;29;20036;-77
2023/09/17 02:39:25;;;;;;;10.90;7.45;;;14.20;99.90;;;13.08;100.00;101154.06;4929116;29;20032;-77
2023/09/17 02:41:51;;;;;;;7.90;5.80;;;14.10;99.90;;;13.02;100.00;101154.34;4930056;29;20048;-77
2023/09/17 02:44:17;;;;;;;13.52;8.77;;;14.10;99.90;;;13.01;100.00;101157.94;4925815;29;20506;-78
2023/09/17 02:46:43;;;;;;;17.08;9.60;;;14.00;99.90;;;12.99;100.00;101157.16;4942094;29;20035;-78
2023/09/17 02:49:11;;;;;;;18.27;10.68;;;14.00;99.90;;;12.97;100.00;101157.22;4941549;29;20040;-78
2023/09/17 02:51:37;;;;;;;14.00;9.30;;;14.00;99.90;;;12.93;100.00;101156.53;4910262;29;20405;-77
2023/09/17 02:54:03;;;;;;;15.10;9.57;;;14.00;99.90;;;12.91;100.00;101158.41;4926771;29;20036;-79
2023/09/17 02:56:29;;;;;;;13.38;8.30;;;13.90;99.90;;;12.90;100.00;101156.69;4944821;29;20024;-78
2023/09/17 02:58:55;;;;;;;13.70;9.13;;;13.90;99.90;;;12.89;100.00;101155.00;4925782;29;20062;-77
2023/09/17 03:01:23;;;;;;;15.93;9.48;;;13.90;99.90;;;12.88;100.00;101161.19;4926061;29;20127;-77
2023/09/17 03:03:52;;;;;;;18.52;9.63;;;13.90;99.90;;;12.89;100.00;101159.41;4941057;29;20059;-77
2023/09/17 03:06:17;;;;;;;10.88;8.45;;;13.90;99.90;;;12.86;100.00;101160.41;4925392;29;20046;-77
2023/09/17 03:08:43;;;;;;;6.85;5.85;;;13.90;99.90;;;12.82;100.00;101161.50;4925725;29;20024;-78
2023/09/17 03:11:13;;;;;;;12.43;8.43;;;13.80;99.90;;;12.81;100.00;101161.59;4926810;29;20497;-77
2023/09/17 03:13:42;;;;;;;10.50;6.65;;;13.80;99.90;;;12.80;100.00;101165.13;4925359;29;20118;-78
2023/09/17 03:16:09;;;;;;;16.33;9.65;;;13.80;99.90;;;12.79;100.00;101159.00;4913744;29;20500;-77
2023/09/17 03:18:35;;;;;;;19.55;10.77;;;13.80;99.90;;;12.79;100.00;101164.28;4925895;29;20091;-78
2023/09/17 03:21:07;;;;;;;16.95;11.20;;;13.80;99.90;;;12.80;100.00;101166.00;4942354;29;20054;-78
2023/09/17 03:23:33;;;;;;;17.45;11.70;;;13.80;99.90;;;12.80;100.00;101158.06;4927616;29;20070;-78
2023/09/17 03:26:03;;;;;;;17.02;11.25;;;13.80;99.90;;;12.83;100.00;101157.94;4915967;29;20039;-78
2023/09/17 03:28:32;;;;;;;17.02;12.30;;;13.90;99.90;;;12.84;100.00;101162.28;4925901;29;20030;-78
2023/09/17 03:30:59;;;;;;;21.95;14.75;;;13.90;99.90;;;12.83;100.00;101155.28;4924743;29;20032;-77
2023/09/17 03:33:25;;;;;;;17.92;11.55;;;13.80;99.90;;;12.82;100.00;101160.63;4919154;29;20126;-77
2023/09/17 03:35:51;;;;;;;13.10;9.77;;;13.80;99.90;;;12.79;100.00;101161.66;4915012;29;20039;-77
2023/09/17 03:38:17;;;;;;;16.33;10.88;;;13.80;99.90;;;12.76;100.00;101161.78;4940859;29;20060;-77
2023/09/17 03:40:43;;;;;;;13.30;8.43;;;13.80;99.90;;;12.73;100.00;101161.94;4940909;29;20032;-77
2023/09/17 03:43:09;;;;;;;12.43;6.05;;;13.70;99.90;;;12.67;100.00;101162.25;4926262;29;20044;-77
2023/09/17 03:45:35;;;;;;;13.10;7.35;;;13.60;99.90;;;12.58;100.00;101158.25;4925843;29;20086;-78
2023/09/17 03:48:01;;;;;;;10.23;7.30;;;13.60;99.90;;;12.52;100.00;101162.03;4942269;29;20051;-77
2023/09/17 03:50:27;;;;;;;7.20;4.90;;;13.50;99.90;;;12.47;100.00;101164.03;4942830;29;20043;-77
2023/09/17 03:52:56;;;;;;;7.22;4.88;;;13.50;99.90;;;12.44;100.00;101158.94;4931324;29;20031;-77
2023/09/17 03:55:23;;;;;;;8.45;5.60;;;13.50;99.90;;;12.42;100.00;101166.06;4924154;29;20028;-77
2023/09/17 03:57:50;;;;;;;15.98;9.00;;;13.50;99.90;;;12.43;100.00;101161.63;4924129;29;20040;-77
2023/09/17 04:00:17;;;;;;;16.80;10.93;;;13.40;99.90;;;12.44;100.00;101163.31;4908302;29;20027;-77
2023/09/17 04:02:45;;;;;;;19.42;10.82;;;13.50;99.90;;;12.45;100.00;101157.97;4924998;29;20040;-77
2023/09/17 04:05:13;;;;;;;14.50;9.15;;;13.50;99.90;;;12.45;100.00;101157.97;4939046;29;20047;-77
2023/09/17 04:07:41;;;;;;;21.27;13.20;;;13.50;99.90;;;12.48;100.00;101165.78;4916585;29;20035;-77
2023/09/17 04:10:08;;;;;;;18.92;10.75;;;13.50;99.90;;;12.44;100.00;101158.94;4943207;29;20058;-77
2023/09/17 04:12:35;;;;;;;25.73;12.88;;;13.50;99.90;;;12.46;100.00;101165.00;4926258;29;20036;-78
2023/09/17 04:15:03;;;;;;;18.65;11.65;;;13.50;99.90;;;12.47;100.00;101171.97;4942105;29;20126;-78
2023/09/17 04:17:29;;;;;;;18.40;13.00;;;13.50;99.90;;;12.48;100.00;101178.09;4940124;29;20024;-77
2023/09/17 04:19:55;;;;;;;23.23;12.77;;;13.50;99.90;;;12.50;100.00;101178.88;4940390;29;20039;-78
2023/09/17 04:22:21;;;;;;;21.13;13.07;;;13.50;99.90;;;12.49;100.00;101178.03;4924471;29;20034;-77
2023/09/17 04:24:48;;;;;;;25.05;14.02;;;13.50;99.90;;;12.50;100.00;101177.13;4932320;29;20036;-77
2023/09/17 04:27:13;;;;;;;23.63;14.48;;;13.50;99.90;;;12.50;100.00;101176.25;4925784;29;20028;-78
2023/09/17 04:29:39;;;;;;;17.17;12.35;;;13.50;99.90;;;12.52;100.00;101182.31;4923803;29;20121;-77
2023/09/17 04:32:05;;;;;;;24.77;13.30;;;13.50;99.90;;;12.56;100.00;101177.75;4924853;29;20027;-76
2023/09/17 04:34:30;;;;;;;20.13;12.15;;;13.60;99.90;;;12.56;100.00;101183.03;4923926;29;20039;-77
2023/09/17 04:36:58;;;;;;;169.18;11.38;;;13.60;99.90;;;12.53;100.00;101178.75;4924852;29;20063;-77
2023/09/17 04:39:25;;;;;;;7.13;4.80;;;13.50;99.90;;;12.48;100.00;101176.34;4939182;29;20035;-78
2023/09/17 04:41:51;;;;;;;11.85;6.35;;;13.50;99.90;;;12.46;100.00;101183.47;4922802;29;20032;-78
2023/09/17 04:44:16;;;;;;;10.63;6.68;;;13.50;99.90;;;12.47;100.00;101184.34;4922516;29;20075;-77
2023/09/17 04:46:45;;;;;;;14.82;8.20;;;13.50;99.90;;;12.49;100.00;101182.47;4923826;29;20490;-77
2023/09/17 04:49:13;;;;;;;8.48;6.57;;;13.50;99.90;;;12.51;100.00;101186.75;4926405;29;20047;-77
2023/09/17 04:51:39;;;;;;;12.25;7.80;;;13.50;99.90;;;12.54;100.00;101201.59;4910842;29;20028;-77
2023/09/17 04:54:05;;;;;;;11.40;4.57;;;13.50;99.90;;;12.56;100.00;101199.72;4914262;29;20104;-77
2023/09/17 04:56:32;;;;;;;8.48;6.03;;;13.50;99.90;;;12.56;100.00;101198.88;4924909;29;20055;-77
2023/09/17 04:58:59;;;;;;;3.75;2.55;;;13.50;99.90;;;12.54;100.00;101208.66;4924628;29;20027;-77
2023/09/17 05:01:26;;;;;;;7.72;3.88;;;13.50;99.90;;;12.55;100.00;101213.00;4909792;29;20517;-77
2023/09/17 05:03:52;;;;;;;8.48;5.93;;;13.50;99.90;;;12.58;100.00;101205.81;4938633;29;20485;-78
2023/09/17 05:06:18;;;;;;;9.27;3.50;;;12.50;99.90;;;12.63;100.00;101216.16;4910993;29;20040;-77
2023/09/17 05:08:43;;;;;;;10.60;5.22;;;13.60;99.90;;;12.69;100.00;101218.50;4924866;29;20038;-78
2023/09/17 05:11:09;;;;;;;6.43;4.35;;;13.60;99.90;;;12.68;100.00;101219.44;4924139;29;20071;-77
2023/09/17 05:13:35;;;;;;;4.30;3.42;;;13.60;99.90;;;12.73;100.00;101226.22;4929633;29;20524;-77
2023/09/17 05:16:02;;;;;;;7.60;5.18;;;13.60;99.90;;;12.78;100.00;101228.63;4928172;29;20111;-78
2023/09/17 05:18:28;;;;;;;12.88;8.50;;;13.70;99.90;;;12.84;100.00;101232.78;4927367;29;20028;-77
2023/09/17 05:20:54;;;;;;;7.65;5.07;;;13.70;99.90;;;12.87;100.00;101236.13;4950516;29;20110;-77
2023/09/17 05:23:21;;;;;;;10.43;4.57;;;13.70;99.90;;;12.93;100.00;101234.97;4928393;29;20063;-77
2023/09/17 05:25:47;;;;;;;6.57;3.88;;;13.80;99.90;;;13.01;100.00;101242.53;4928528;29;20170;-77
2023/09/17 05:28:12;;;;;;;17.60;9.18;;;13.80;99.90;;;13.12;100.00;101245.50;4912608;29;20052;-78
2023/09/17 05:30:38;;;;;;;11.90;6.95;;;14.00;99.90;;;13.24;100.00;101246.69;4942450;29;20068;-77
2023/09/17 05:33:05;;;;;;;13.57;8.80;;;14.00;99.90;;;13.37;100.00;101254.91;4916710;29;20023;-78
2023/09/17 05:35:32;;;;;;;13.25;9.18;;;14.20;99.90;;;13.47;100.00;101251.72;4928041;29;20113;-77
2023/09/17 05:37:57;;;;;;;19.38;9.95;;;14.20;99.90;;;13.61;100.00;101261.63;4925527;29;20035;-77
2023/09/17 05:40:23;;;;;;;17.35;9.35;;;14.40;99.90;;;13.80;100.00;101264.19;4934325;29;20494;-77
2023/09/17 05:42:49;;;;;;;16.55;9.35;;;14.50;99.90;;;14.05;100.00;101273.50;4940967;29;20055;-77
2023/09/17 05:45:15;;;;;;;13.73;9.20;;;14.60;99.90;;;14.14;100.00;101270.34;4926155;29;20071;-77
2023/09/17 05:47:42;;;;;;;13.27;9.43;;;14.70;99.90;;;14.24;100.00;101273.38;4926051;29;20114;-77
2023/09/17 05:50:09;;;;;;;15.15;9.68;;;14.80;99.90;;;14.23;100.00;101275.16;4927387;29;20028;-77
2023/09/17 05:52:36;;;;;;;19.33;9.30;;;14.90;99.90;;;14.73;100.00;101281.34;4924374;29;20039;-76
2023/09/17 05:55:04;;;;;;;15.38;8.07;;;15.10;99.90;;;14.98;100.00;101286.97;4925586;29;20027;-76
2023/09/17 05:57:30;;;;;;;15.55;8.63;;;15.30;99.90;;;15.02;100.00;101286.81;4925372;29;20035;-76
2023/09/17 05:59:57;;;;;;;13.50;8.32;;;15.40;99.90;;;15.14;100.00;101271.06;4940891;29;20528;-77
2023/09/17 06:02:23;;;;;;;12.63;7.38;;;15.60;99.90;;;15.27;100.00;101275.66;4928927;29;20035;-77
2023/09/17 06:04:52;;;;;;;11.43;7.80;;;15.80;99.90;;;15.67;100.00;101279.50;4929356;29;20039;-77
2023/09/17 06:07:20;;;;;;;14.82;7.82;;;15.90;99.90;;;15.67;99.41;101286.63;4940648;29;21348;-77
2023/09/17 06:09:45;;;;;;;16.10;8.23;;;16.10;99.90;;;15.83;98.67;101287.47;4913849;29;20462;-77
2023/09/17 06:12:12;;;;;;;12.57;7.82;;;16.20;99.90;;;15.92;97.26;101286.06;4927334;29;20032;-77
2023/09/17 06:14:38;;;;;;;12.85;7.75;;;16.30;99.90;;;16.21;96.46;101297.53;4926467;29;20028;-77
2023/09/17 06:17:04;;;;;;;13.68;7.57;;;16.50;99.90;;;17.04;93.92;101311.00;4925316;29;20047;-78
2023/09/17 06:19:31;;;;;;;14.35;7.68;;;16.90;99.90;;;17.70;90.77;101317.28;4942124;29;20897;-77
2023/09/17 06:21:57;;;;;;;21.60;7.53;;;17.30;99.90;;;18.69;86.03;101322.03;4947595;28;20055;-77
2023/09/17 06:24:22;;;;;;;13.25;7.68;;;17.80;99.90;;;18.73;83.71;101317.34;4907684;29;20036;-77
2023/09/17 06:26:48;;;;;;;20.85;6.85;;;18.20;99.90;;;18.67;83.41;101312.44;4921522;29;20043;-76
2023/09/17 06:29:14;;;;;;;13.00;7.13;;;18.60;99.90;;;20.19;79.68;101334.09;4922901;29;20550;-78
2023/09/17 06:31:40;;;;;;;11.20;6.95;;;19.10;99.90;;;21.15;74.81;101338.13;4940121;29;20020;-77
2023/09/17 06:34:06;;;;;;;16.17;6.88;;;19.60;99.90;;;21.13;74.13;101333.88;4926091;29;20032;-77
2023/09/17 06:36:32;;;;;;;14.98;7.13;;;20.20;99.90;;;22.58;69.85;101346.69;4914054;29;20035;-76
2023/09/17 06:38:57;;;;;;;8.77;6.13;;;21.20;99.90;;;25.83;62.22;101381.66;4925275;29;20047;-77
2023/09/17 06:41:23;;;;;;;9.77;6.13;;;22.70;99.90;;;27.79;57.02;101395.31;4926357;29;20031;-77
2023/09/17 06:43:52;;;;;;;12.45;6.78;;;24.10;99.90;;;29.26;53.48;101415.88;4939272;29;20040;-77
2023/09/17 06:46:18;;;;;;;13.73;6.43;;;25.50;99.90;;;29.82;51.27;101424.69;4908908;29;20051;-77
2023/09/17 06:48:44;;;;;;;9.50;6.53;;;26.30;99.90;;;29.72;50.23;101425.97;4926295;29;20535;-78
2023/09/17 06:51:10;;;;;;;11.25;6.20;;;27.10;99.90;;;30.35;49.03;101440.25;4925210;29;20028;-78
2023/09/17 06:53:35;;;;;;;12.38;5.68;;;27.80;99.90;;;30.47;48.50;101449.63;4908894;29;20486;-77
2023/09/17 06:56:02;;;;;;;12.18;6.38;;;28.40;99.90;;;31.07;47.46;101459.50;4925063;29;20088;-78
2023/09/17 06:58:28;;;;;;;8.05;5.70;;;28.80;99.90;;;30.99;47.19;101458.78;4924079;29;20039;-77
2023/09/17 07:00:54;;;;;;;8.43;5.32;;;28.80;99.90;;;29.82;48.37;101459.16;4929960;29;20031;-78
2023/09/17 07:03:20;;;;;;;11.48;5.32;;;28.30;99.90;;;27.09;53.51;101422.69;4942272;29;20075;-77
2023/09/17 07:05:45;;;;;;;10.80;5.63;;;27.80;99.90;;;26.54;55.42;101421.19;4925758;29;20458;-77
2023/09/17 07:08:11;;;;;;;13.82;6.07;;;27.10;99.90;;;25.40;57.58;101404.84;4932701;29;20024;-77
2023/09/17 07:10:37;;;;;;;9.57;5.40;;;26.70;99.90;;;25.48;58.22;101410.31;4911579;29;20046;-77
2023/09/17 07:13:03;;;;;;;9.23;5.80;;;26.30;99.90;;;26.02;57.37;101419.28;4925023;29;20039;-77
2023/09/17 07:15:30;;;;;;;8.25;5.32;;;26.40;99.90;;;26.89;56.56;101422.94;4924603;29;20494;-77
2023/09/17 07:17:55;;;;;;;12.95;5.38;;;26.80;99.90;;;27.61;55.42;101426.06;4909972;29;20379;-77
2023/09/17 07:20:21;;;;;;;10.82;5.03;;;27.20;99.90;;;28.01;54.50;101434.41;4917537;29;20080;-77
2023/09/17 07:22:48;;;;;;;9.40;5.70;;;27.80;99.90;;;28.63;53.98;101440.16;4941897;29;20127;-77
2023/09/17 07:25:14;;;;;;;8.90;5.50;;;28.20;99.90;;;29.08;53.51;101443.22;4922855;29;20028;-78
2023/09/17 07:27:40;;;;;;;7.75;5.35;;;28.80;99.90;;;30.05;51.82;101451.84;4917032;29;20438;-78
2023/09/17 07:30:06;;;;;;;10.65;5.70;;;29.50;99.90;;;30.86;50.48;101463.03;4923667;29;20094;-78
2023/09/17 07:32:32;;;;;;;9.52;5.10;;;30.10;99.90;;;30.71;50.56;101461.28;4924531;29;20019;-78
2023/09/17 07:35:01;;;;;;;9.38;5.70;;;30.20;99.90;;;30.06;51.75;101463.53;4946610;28;20051;-78
2023/09/17 07:37:27;;;;;;;10.32;5.72;;;29.70;99.90;;;28.79;53.65;101447.41;4915711;29;20409;-78
2023/09/17 07:39:59;;;;;;;8.07;5.72;;;29.60;99.90;;;29.34;52.87;101447.56;4922665;29;20044;-78
2023/09/17 07:42:24;;;;;;;9.15;5.82;;;29.60;99.90;;;29.32;52.46;101455.84;4925231;29;20124;-78
2023/09/17 07:44:50;;;;;;;22.38;5.65;;;29.50;99.90;;;29.44;52.72;101453.59;4924076;29;20031;-77
2023/09/17 07:47:17;;;;;;;7.00;4.72;;;29.80;99.90;;;29.81;51.44;101462.91;4922391;29;20052;-78
2023/09/17 07:49:43;;;;;;;11.10;5.53;;;30.10;99.90;;;30.29;50.69;101473.59;4940734;29;20032;-77
2023/09/17 07:52:09;;;;;;;10.75;4.85;;;30.20;99.90;;;29.95;49.34;101477.56;4910759;29;20090;-77
2023/09/17 07:54:42;;;;;;;6.57;4.88;;;30.30;99.70;;;30.01;49.60;101479.53;4924446;29;20115;-78
2023/09/17 07:57:11;;;;;;;9.70;4.60;;;30.60;99.90;;;30.28;48.69;101483.59;4939393;28;20048;-78
2023/09/17 07:59:37;;;;;;;8.38;4.43;;;30.80;99.20;;;30.31;48.35;101494.09;4925789;29;20083;-78
2023/09/17 08:02:03;;;;;;;7.72;4.47;;;30.90;99.50;;;30.59;48.43;101490.78;4924152;29;20040;-78
2023/09/17 08:04:29;;;;;;;14.38;4.57;;;31.10;96.90;;;30.16;47.79;101485.88;4907492;29;20075;-78
2023/09/17 08:06:56;;;;;;;7.47;4.20;;;31.50;97.60;;;31.26;46.65;101498.06;4921406;29;20480;-78
2023/09/17 08:09:22;;;;;;;8.18;4.55;;;32.00;97.80;;;31.72;45.55;101508.69;4913888;29;20065;-78
2023/09/17 08:11:49;;;;;;;13.52;4.15;;;32.30;95.90;;;31.51;44.55;101514.91;4909053;29;20043;-78
2023/09/17 08:14:15;;;;;;;6.95;4.10;;;32.30;95.40;;;31.34;44.87;101511.56;4914041;29;20059;-77
2023/09/17 08:16:40;;;;;;;10.35;4.32;;;32.70;96.50;;;32.34;44.58;101515.41;4922119;29;20051;-78
2023/09/17 08:19:06;;;;;;;9.38;4.03;;;33.20;95.40;;;32.79;42.49;101534.25;4908689;29;20051;-78
2023/09/17 08:21:33;;;;;;;5.90;3.50;;;33.60;94.90;;;32.98;42.57;101533.53;4922944;29;20689;-78
2023/09/17 08:23:59;;;;;;;9.10;4.28;;;33.20;92.50;;;31.73;43.50;101536.75;4924917;29;20071;-78
2023/09/17 08:26:29;;;;;;;9.63;4.05;;;32.60;93.60;;;31.00;44.78;101514.88;4923327;29;20063;-78
2023/09/17 08:28:56;;;;;;;8.93;4.18;;;32.20;93.50;;;30.29;45.30;101517.88;4925801;29;20036;-78
2023/09/17 08:31:25;;;;;;;10.05;3.70;;;31.40;94.60;;;29.84;46.85;101495.94;4914215;29;20502;-77
2023/09/17 08:33:51;;;;;;;7.25;3.90;;;31.40;95.00;;;30.21;46.20;101501.63;4924496;29;20122;-78
2023/09/17 08:36:19;;;;;;;8.77;4.10;;;31.10;94.70;;;29.64;47.08;101491.97;4924949;29;20102;-78
2023/09/17 08:38:45;;;;;;;11.77;4.05;;;30.70;95.70;;;29.65;47.21;101485.50;4912195;29;20040;-78
2023/09/17 08:41:13;;;;;;;7.55;3.65;;;30.80;96.50;;;30.02;47.26;101484.81;4908489;29;20031;-77
2023/09/17 08:43:39;;;;;;;6.93;3.63;;;30.90;95.70;;;30.02;46.79;101484.81;4923441;29;20048;-77
2023/09/17 08:46:06;;;;;;;9.88;3.90;;;30.30;96.00;;;28.80;48.44;101470.75;4927437;29;20544;-77
2023/09/17 08:48:32;;;;;;;6.90;3.55;;;30.30;96.10;;;28.53;48.94;101477.44;4942722;29;20028;-78
2023/09/17 08:50:59;;;;;;;7.43;3.55;;;29.60;96.80;;;28.36;50.16;101463.03;4927469;29;20068;-77
2023/09/17 08:53:38;;;;;;;5.18;3.53;;;29.60;97.10;;;28.45;48.82;101466.56;4945327;29;20038;-78
2023/09/17 08:56:06;;;;;;;12.13;3.85;;;29.20;97.50;;;27.96;50.35;101451.16;4941695;29;20039;-78
2023/09/17 08:58:38;;;;;;;9.52;3.63;;;28.90;99.00;;;27.97;50.91;101447.47;4944592;29;20035;-78
2023/09/17 09:01:08;;;;;;;8.02;3.80;;;28.90;99.30;;;28.44;50.84;101454.03;4926020;29;20141;-78
2023/09/17 09:03:36;;;;;;;5.72;3.60;;;28.90;98.50;;;28.28;49.99;101441.38;4935201;29;20059;-77
2023/09/17 09:06:06;;;;;;;12.85;3.70;;;28.80;99.20;;;28.33;50.99;101443.56;4925215;29;20028;-79
2023/09/17 09:08:33;;;;;;;8.88;3.53;;;28.60;98.10;;;27.74;51.14;101422.03;4928591;29;20059;-78
2023/09/17 09:10:59;;;;;;;8.20;3.70;;;28.00;98.80;;;26.96;52.96;101417.75;4911534;29;20040;-77
2023/09/17 09:13:25;;;;;;;6.30;3.17;;;27.50;99.90;;;26.71;53.75;101405.97;4943197;29;20746;-77
2023/09/17 09:15:51;;;;;;;74.00;6.85;;;27.30;99.90;;;26.44;54.50;101406.97;4912080;29;20095;-78
2023/09/17 09:18:21;;;;;;;8.27;3.53;;;26.90;99.90;;;26.07;54.36;101398.09;4950319;29;20536;-77
2023/09/17 09:20:50;;;;;;;10.57;3.80;;;26.70;99.90;;;25.64;53.89;101407.78;4927227;29;20035;-78
2023/09/17 09:23:16;;;;;;;10.27;4.15;;;26.40;99.90;;;25.50;55.80;101395.69;4927522;29;20039;-77
2023/09/17 09:25:42;;;;;;;7.57;3.88;;;26.10;99.90;;;25.10;56.91;101393.38;4925315;29;20047;-78
2023/09/17 09:28:11;;;;;;;5.78;3.70;;;26.10;99.90;;;25.49;56.89;101401.25;4941437;29;20379;-77
2023/09/17 09:30:37;;;;;;;9.95;3.72;;;25.90;99.90;;;25.17;56.92;101395.28;4925999;29;20163;-78
2023/09/17 09:33:06;;;;;;;11.38;3.80;;;25.80;99.90;;;25.02;57.37;101388.72;4927376;29;20032;-77
2023/09/17 09:35:33;;;;;;;6.15;3.55;;;25.80;99.90;;;25.03;57.86;101382.31;4916994;29;20516;-77
2023/09/17 09:38:01;;;;;;;8.18;3.80;;;25.90;99.90;;;25.34;57.29;101387.44;4926277;29;20048;-78
2023/09/17 09:40:27;;;;;;;13.45;3.83;;;25.90;99.90;;;25.29;57.07;101387.03;4911140;29;20035;-77
2023/09/17 09:42:53;;;;;;;9.50;4.10;;;26.10;99.90;;;25.68;56.70;101392.13;4926818;29;20038;-78
2023/09/17 09:45:19;;;;;;;6.32;3.38;;;26.20;99.90;;;25.74;57.57;101389.66;4927866;29;20080;-78
2023/09/17 09:47:51;;;;;;;6.82;3.70;;;26.30;99.90;;;25.73;56.10;101390.69;4913102;29;20051;-78
2023/09/17 09:50:30;;;;;;;7.85;3.70;;;26.40;99.90;;;25.86;56.23;101394.84;4926382;29;20581;-78
2023/09/17 09:52:59;;;;;;;6.28;3.72;;;26.30;99.90;;;25.65;55.67;101389.75;4924949;29;20044;-78
2023/09/17 09:55:34;;;;;;;8.27;3.80;;;26.20;99.90;;;25.49;56.00;101383.22;4910922;29;20070;-78
2023/09/17 09:58:00;;;;;;;6.75;3.90;;;26.20;99.90;;;25.51;56.66;101381.22;4926357;29;20051;-78
2023/09/17 10:00:26;;;;;;;9.43;3.78;;;26.30;99.90;;;25.65;56.04;101378.97;4942006;29;20055;-77
2023/09/17 10:02:56;;;;;;;14.02;3.58;;;26.20;99.90;;;25.50;56.08;101376.81;4942732;29;20052;-77